Time;durP1;ratioP1;P1;durP2;ratioP2;P2;SDS_P1;SDS_P2;PMS_P1;PMS_P2;Temp;Humidity;BMP_temperature;BMP_pressure;BME280_temperature;BME280_humidity;BME280_pressure;Samples;Min_cycle;Max_cycle;Signal;HPM_P1;HPM_P2
2022/12/06 00:01:17;;;;;;;;;;;4.40;99.90;;;;;;4939547;28;19926;-72
2022/12/06 00:03:43;;;;;;;;;;;4.40;99.90;;;;;;4958316;28;19926;-72
2022/12/06 00:06:10;;;;;;;;;;;4.50;99.90;;;;;;4962712;28;19923;-72
2022/12/06 00:08:36;;;;;;;;;;;4.50;99.90;;;;;;4950212;28;19922;-72
2022/12/06 00:11:06;;;;;;;;;;;4.50;99.90;;;;;;4949718;28;19953;-72
2022/12/06 00:13:32;;;;;;;;;;;4.50;99.90;;;;;;4950526;28;19926;-72
2022/12/06 00:16:05;;;;;;;;;;;4.50;99.90;;;;;;4956255;28;20374;-72
2022/12/06 00:18:34;;;;;;;;;;;4.50;99.90;;;;;;4972040;28;20481;-72
2022/12/06 00:21:04;;;;;;;;;;;4.50;99.90;;;;;;4953239;28;19961;-72
2022/12/06 00:23:30;;;;;;;;;;;4.40;99.90;;;;;;4963191;28;19926;-72
2022/12/06 00:25:56;;;;;;;;;;;4.40;99.90;;;;;;4963290;28;19922;-72
2022/12/06 00:28:23;;;;;;;;;;;4.30;99.90;;;;;;4955473;28;19929;-72
2022/12/06 00:30:48;;;;;;;;;;;4.30;99.90;;;;;;4951251;28;20000;-71
2022/12/06 00:33:14;;;;;;;;;;;4.30;99.90;;;;;;4967582;28;19926;-71
2022/12/06 00:35:40;;;;;;;;;;;4.20;99.90;;;;;;4958168;28;20028;-71
2022/12/06 00:38:05;;;;;;;;;;;4.20;99.90;;;;;;4956557;28;19986;-71
2022/12/06 00:40:31;;;;;;;;;;;4.20;99.90;;;;;;4934491;28;20077;-71
2022/12/06 00:42:57;;;;;;;;;;;4.20;99.90;;;;;;4933685;28;20332;-72
2022/12/06 00:45:22;;;;;;;;;;;4.10;99.90;;;;;;4951951;28;19926;-72
2022/12/06 00:47:48;;;;;;;;;;;4.10;99.90;;;;;;4937532;28;19930;-72
2022/12/06 00:50:13;;;;;;;;;;;4.10;99.90;;;;;;4939340;28;20274;-72
2022/12/06 00:52:39;;;;;;;;;;;4.00;99.90;;;;;;4965277;28;20375;-71
2022/12/06 00:55:05;;;;;;;;;;;4.00;99.90;;;;;;4933034;29;20021;-71
2022/12/06 00:57:31;;;;;;;;;;;4.00;99.90;;;;;;4949304;28;19978;-71
2022/12/06 00:59:56;;;;;;;;;;;3.90;99.90;;;;;;4920450;29;20009;-71
2022/12/06 01:02:22;;;;;;;;;;;3.90;99.90;;;;;;4955880;28;19922;-71
2022/12/06 01:04:48;;;;;;;;;;;3.90;99.90;;;;;;4959292;28;19930;-71
2022/12/06 01:07:13;;;;;;;;;;;3.90;99.90;;;;;;4950463;28;19981;-71
2022/12/06 01:09:39;;;;;;;;;;;3.90;99.90;;;;;;4916997;29;19926;-71
2022/12/06 01:12:04;;;;;;;;;;;3.90;99.90;;;;;;4936689;29;20010;-72
2022/12/06 01:14:30;;;;;;;;;;;3.90;99.90;;;;;;4934395;28;19926;-72
2022/12/06 01:16:56;;;;;;;;;;;3.90;99.90;;;;;;4966637;28;19928;-72
2022/12/06 01:19:21;;;;;;;;;;;4.00;99.90;;;;;;4934532;28;20174;-72
2022/12/06 01:21:47;;;;;;;;;;;4.00;99.90;;;;;;4938286;28;19929;-72
2022/12/06 01:24:13;;;;;;;;;;;4.00;99.90;;;;;;4958797;28;20362;-72
2022/12/06 01:26:38;;;;;;;;;;;4.00;99.90;;;;;;4962439;28;19922;-72
2022/12/06 01:29:04;;;;;;;;;;;4.00;99.90;;;;;;4949605;28;20064;-71
2022/12/06 01:31:30;;;;;;;;;;;4.10;99.90;;;;;;4952569;28;19926;-71
2022/12/06 01:33:56;;;;;;;;;;;4.10;99.90;;;;;;4932011;28;20017;-71
2022/12/06 01:36:22;;;;;;;;;;;4.10;99.90;;;;;;4953318;28;20610;-71
2022/12/06 01:38:49;;;;;;;;;;;4.00;99.90;;;;;;4949220;28;19992;-73
2022/12/06 01:41:15;;;;;;;;;;;4.00;99.90;;;;;;4949060;28;20231;-72
2022/12/06 01:43:42;;;;;;;;;;;4.00;99.90;;;;;;4942265;28;19927;-71
2022/12/06 01:46:17;;;;;;;;;;;4.10;99.90;;;;;;4951893;28;19922;-71
2022/12/06 01:48:42;;;;;;;;;;;4.00;99.90;;;;;;4958910;28;20290;-71
2022/12/06 01:51:10;;;;;;;;;;;4.00;99.90;;;;;;4960892;28;20363;-71
2022/12/06 01:53:36;;;;;;;;;;;4.00;99.90;;;;;;4967286;28;20128;-71
2022/12/06 01:56:01;;;;;;;;;;;4.00;99.90;;;;;;4963298;28;19926;-71
2022/12/06 01:58:31;;;;;;;;;;;4.00;99.90;;;;;;4945643;28;19964;-71
2022/12/06 02:00:56;;;;;;;;;;;4.00;99.90;;;;;;4949609;28;19933;-71
2022/12/06 02:03:23;;;;;;;;;;;4.00;99.90;;;;;;4938881;28;19926;-72
2022/12/06 02:05:49;;;;;;;;;;;4.00;99.90;;;;;;4965016;28;19929;-72
2022/12/06 02:08:15;;;;;;;;;;;4.00;99.90;;;;;;4947884;28;19926;-72
2022/12/06 02:10:40;;;;;;;;;;;4.00;99.90;;;;;;4951884;28;20561;-72
2022/12/06 02:13:06;;;;;;;;;;;4.00;99.90;;;;;;4958215;28;19931;-71
2022/12/06 02:15:49;;;;;;;;;;;4.00;99.90;;;;;;4934535;28;19927;-71
2022/12/06 02:18:23;;;;;;;;;;;4.00;99.90;;;;;;4971841;28;20646;-72
2022/12/06 02:21:15;;;;;;;;;;;4.00;99.90;;;;;;4943596;28;19981;-72
2022/12/06 02:23:59;;;;;;;;;;;4.00;99.90;;;;;;4967324;28;19948;-72
2022/12/06 02:26:28;;;;;;;;;;;4.00;99.90;;;;;;4949142;28;19930;-72
2022/12/06 02:28:57;;;;;;;;;;;4.00;99.90;;;;;;4953233;28;20369;-71
2022/12/06 02:31:41;;;;;;;;;;;4.00;99.90;;;;;;4952433;28;20398;-71
2022/12/06 02:34:33;;;;;;;;;;;4.00;99.90;;;;;;4947116;28;19966;-71
2022/12/06 02:37:17;;;;;;;;;;;4.00;99.90;;;;;;4924619;28;19926;-71
2022/12/06 02:39:46;;;;;;;;;;;3.90;99.90;;;;;;4932254;28;20231;-71
2022/12/06 02:42:21;;;;;;;;;;;4.00;99.90;;;;;;4938105;28;19926;-71
2022/12/06 02:44:52;;;;;;;;;;;4.00;99.90;;;;;;4951485;28;20283;-71
2022/12/06 02:47:20;;;;;;;;;;;4.00;99.90;;;;;;4946312;28;19934;-71
2022/12/06 02:49:48;;;;;;;;;;;4.00;99.90;;;;;;4948774;28;20118;-71
2022/12/06 02:52:15;;;;;;;;;;;4.00;99.90;;;;;;4937531;28;19931;-71
2022/12/06 02:54:42;;;;;;;;;;;3.90;99.90;;;;;;4950692;28;20396;-71
2022/12/06 02:57:08;;;;;;;;;;;3.90;99.90;;;;;;4956244;28;19937;-71
2022/12/06 02:59:33;;;;;;;;;;;3.90;99.90;;;;;;4935147;28;20284;-71
2022/12/06 03:02:01;;;;;;;;;;;3.90;99.90;;;;;;4948648;28;19981;-71
2022/12/06 03:04:44;;;;;;;;;;;3.90;99.90;;;;;;4935949;28;19937;-72
2022/12/06 03:07:22;;;;;;;;;;;3.90;99.90;;;;;;4941097;28;20414;-72
2022/12/06 03:10:06;;;;;;;;;;;3.90;99.90;;;;;;4939603;28;20268;-72
2022/12/06 03:12:38;;;;;;;;;;;3.90;99.90;;;;;;4935426;28;19922;-72
2022/12/06 03:15:04;;;;;;;;;;;3.90;99.90;;;;;;4945997;28;19926;-71
2022/12/06 03:17:38;;;;;;;;;;;3.90;99.90;;;;;;4948646;28;19926;-71
2022/12/06 03:20:06;;;;;;;;;;;3.90;99.90;;;;;;4947881;28;19926;-71
2022/12/06 03:22:34;;;;;;;;;;;3.90;99.90;;;;;;4961965;28;19922;-71
2022/12/06 03:25:01;;;;;;;;;;;3.90;99.90;;;;;;4947033;28;20462;-71
2022/12/06 03:27:29;;;;;;;;;;;3.90;99.90;;;;;;4945673;28;19933;-71
2022/12/06 03:29:56;;;;;;;;;;;3.90;99.90;;;;;;4950857;28;20164;-71
2022/12/06 03:32:23;;;;;;;;;;;3.90;99.90;;;;;;4949595;28;20044;-71
2022/12/06 03:34:51;;;;;;;;;;;3.90;99.90;;;;;;4949457;28;19926;-72
2022/12/06 03:37:20;;;;;;;;;;;3.90;99.90;;;;;;4946085;28;20017;-72
2022/12/06 03:39:56;;;;;;;;;;;3.90;99.90;;;;;;4946861;28;19933;-72
2022/12/06 03:42:22;;;;;;;;;;;3.80;99.90;;;;;;4948444;28;20290;-72
2022/12/06 03:44:47;;;;;;;;;;;3.80;99.90;;;;;;4951171;28;19926;-72
2022/12/06 03:47:16;;;;;;;;;;;3.80;99.90;;;;;;4945756;28;20036;-72
2022/12/06 03:49:44;;;;;;;;;;;3.80;99.90;;;;;;4938165;28;19940;-72
2022/12/06 03:52:09;;;;;;;;;;;3.80;99.90;;;;;;4956711;28;20395;-72
2022/12/06 03:54:37;;;;;;;;;;;3.80;99.90;;;;;;4936928;28;20140;-71
2022/12/06 03:57:03;;;;;;;;;;;3.80;99.90;;;;;;4953184;28;19926;-71
2022/12/06 03:59:28;;;;;;;;;;;3.90;99.90;;;;;;4924767;28;19927;-71
2022/12/06 04:01:54;;;;;;;;;;;3.90;99.90;;;;;;4933932;29;19965;-72
2022/12/06 04:04:19;;;;;;;;;;;3.90;99.90;;;;;;4955417;28;20386;-72
2022/12/06 04:06:45;;;;;;;;;;;3.90;99.90;;;;;;4934864;28;19926;-72
2022/12/06 04:12:59;;;;;;;;;;;3.90;99.90;;;;;;4940970;28;20038;-72
2022/12/06 04:14:48;;;;;;;;;;;4.00;99.90;;;;;;4956883;28;20183;-72
2022/12/06 04:19:58;;;;;;;;;;;4.00;99.90;;;;;;4948773;28;19933;-72
2022/12/06 04:25:08;;;;;;;;;;;4.00;99.90;;;;;;4959119;28;20352;-72
2022/12/06 04:38:43;;;;;;;;;;;4.00;99.90;;;;;;4961538;28;20386;-72
2022/12/06 04:41:09;;;;;;;;;;;4.00;99.90;;;;;;4948759;28;19998;-72
2022/12/06 04:43:41;;;;;;;;;;;3.90;99.90;;;;;;4951173;28;20009;-71
2022/12/06 04:46:08;;;;;;;;;;;3.90;99.90;;;;;;4948570;28;19941;-71
2022/12/06 04:48:33;;;;;;;;;;;3.90;99.90;;;;;;4947756;28;19922;-71
2022/12/06 04:50:59;;;;;;;;;;;4.00;99.90;;;;;;4946930;28;19985;-71
2022/12/06 04:53:24;;;;;;;;;;;4.00;99.90;;;;;;4963323;28;20406;-71
2022/12/06 04:55:51;;;;;;;;;;;4.00;99.90;;;;;;4932550;28;20399;-71
2022/12/06 04:58:17;;;;;;;;;;;4.00;99.90;;;;;;4950374;28;19934;-71
2022/12/06 05:00:42;;;;;;;;;;;3.90;99.90;;;;;;4947471;28;19933;-71
2022/12/06 05:03:14;;;;;;;;;;;4.00;99.90;;;;;;4946415;28;19973;-71
2022/12/06 05:05:40;;;;;;;;;;;4.00;99.90;;;;;;4971279;28;19922;-71
2022/12/06 05:08:06;;;;;;;;;;;3.90;99.90;;;;;;4967759;28;19930;-71
2022/12/06 05:10:31;;;;;;;;;;;3.90;99.90;;;;;;4949896;28;20259;-71
2022/12/06 05:12:57;;;;;;;;;;;3.90;99.90;;;;;;4945137;28;19973;-71
2022/12/06 05:15:23;;;;;;;;;;;3.90;99.90;;;;;;4952400;28;19949;-71
2022/12/06 05:17:48;;;;;;;;;;;3.90;99.90;;;;;;4957986;28;19933;-71
2022/12/06 05:20:14;;;;;;;;;;;3.90;99.90;;;;;;4949932;28;19933;-71
2022/12/06 05:22:40;;;;;;;;;;;3.80;99.90;;;;;;4951500;28;20178;-71
2022/12/06 05:25:05;;;;;;;;;;;3.80;99.90;;;;;;4956478;28;20009;-71
2022/12/06 05:27:31;;;;;;;;;;;3.80;99.90;;;;;;4941985;28;20215;-71
2022/12/06 05:29:56;;;;;;;;;;;3.80;99.90;;;;;;4951051;28;19997;-71
2022/12/06 05:32:22;;;;;;;;;;;3.70;99.90;;;;;;4955668;28;19926;-71
2022/12/06 05:34:48;;;;;;;;;;;3.70;99.90;;;;;;4950326;28;20315;-71
2022/12/06 05:37:13;;;;;;;;;;;3.60;99.90;;;;;;4950348;28;19926;-71
2022/12/06 05:39:39;;;;;;;;;;;3.50;99.90;;;;;;4939040;28;20041;-71
2022/12/06 05:42:04;;;;;;;;;;;3.40;99.90;;;;;;4949622;28;19926;-71
2022/12/06 05:44:30;;;;;;;;;;;3.20;99.90;;;;;;4962111;28;20314;-71
2022/12/06 05:46:55;;;;;;;;;;;3.10;99.90;;;;;;4938365;28;19922;-71
2022/12/06 05:49:21;;;;;;;;;;;2.90;99.90;;;;;;4938209;28;19930;-71
2022/12/06 05:51:47;;;;;;;;;;;2.80;99.90;;;;;;4949226;28;19973;-73
2022/12/06 05:54:12;;;;;;;;;;;2.70;99.90;;;;;;4937537;28;20302;-73
2022/12/06 05:56:38;;;;;;;;;;;2.60;99.90;;;;;;4958444;28;20040;-74
2022/12/06 05:59:04;;;;;;;;;;;2.50;99.90;;;;;;4952161;28;20013;-74
2022/12/06 06:01:30;;;;;;;;;;;2.40;99.90;;;;;;4950098;28;20284;-74
2022/12/06 06:03:56;;;;;;;;;;;2.30;99.90;;;;;;4961564;28;19940;-74
2022/12/06 06:06:22;;;;;;;;;;;2.20;99.90;;;;;;4948926;28;19922;-74
2022/12/06 06:08:48;;;;;;;;;;;2.00;99.90;;;;;;4949635;28;19926;-71
2022/12/06 06:11:13;;;;;;;;;;;1.90;99.90;;;;;;4932637;28;19984;-73
2022/12/06 06:13:39;;;;;;;;;;;1.80;99.90;;;;;;4956855;28;19954;-73
2022/12/06 06:16:05;;;;;;;;;;;1.60;99.90;;;;;;4942439;28;19930;-73
2022/12/06 06:18:30;;;;;;;;;;;1.50;99.90;;;;;;4948009;28;19926;-73
2022/12/06 06:20:57;;;;;;;;;;;1.40;99.90;;;;;;4954776;28;19970;-73
2022/12/06 06:23:23;;;;;;;;;;;1.40;99.90;;;;;;4956841;28;19922;-73
2022/12/06 06:25:48;;;;;;;;;;;1.20;99.90;;;;;;4955733;28;20434;-73
2022/12/06 06:28:15;;;;;;;;;;;1.20;99.90;;;;;;4933274;28;19930;-73
2022/12/06 06:30:41;;;;;;;;;;;1.10;99.90;;;;;;4934373;29;19937;-73
2022/12/06 06:33:06;;;;;;;;;;;1.10;99.90;;;;;;4948277;28;19926;-73
2022/12/06 06:35:32;;;;;;;;;;;1.00;99.90;;;;;;4954871;28;19937;-73
2022/12/06 06:37:58;;;;;;;;;;;1.00;99.90;;;;;;4954411;28;20564;-73
2022/12/06 06:40:23;;;;;;;;;;;1.00;99.90;;;;;;4948625;28;20333;-73
2022/12/06 06:42:49;;;;;;;;;;;0.90;99.90;;;;;;4933958;28;19922;-73
2022/12/06 06:45:14;;;;;;;;;;;0.90;99.90;;;;;;4946270;28;19927;-73
2022/12/06 06:47:40;;;;;;;;;;;0.90;99.90;;;;;;4944761;28;19922;-73
2022/12/06 06:50:06;;;;;;;;;;;0.90;99.90;;;;;;4947922;28;19942;-73
2022/12/06 06:52:32;;;;;;;;;;;0.90;99.90;;;;;;4948401;28;20407;-73
2022/12/06 06:54:58;;;;;;;;;;;0.90;99.90;;;;;;4943444;28;20009;-73
2022/12/06 06:57:23;;;;;;;;;;;0.90;99.90;;;;;;4949076;28;19977;-73
2022/12/06 06:59:49;;;;;;;;;;;0.90;99.90;;;;;;4949103;28;20510;-73
2022/12/06 07:02:16;;;;;;;;;;;0.90;99.90;;;;;;4937486;28;19931;-73
2022/12/06 07:04:41;;;;;;;;;;;1.00;99.90;;;;;;4954886;28;20474;-73
2022/12/06 07:07:07;;;;;;;;;;;1.00;99.90;;;;;;4950833;28;19927;-73
2022/12/06 07:09:33;;;;;;;;;;;1.10;99.90;;;;;;4947272;28;20045;-73
2022/12/06 07:11:58;;;;;;;;;;;1.10;99.90;;;;;;4951558;28;20299;-73
2022/12/06 07:14:24;;;;;;;;;;;1.20;99.90;;;;;;4962812;28;19973;-73
2022/12/06 07:16:49;;;;;;;;;;;1.30;99.90;;;;;;4941584;28;19930;-71
2022/12/06 07:19:15;;;;;;;;;;;1.30;99.90;;;;;;4949929;28;19934;-71
2022/12/06 07:21:40;;;;;;;;;;;1.40;99.90;;;;;;4944814;28;20389;-71
2022/12/06 07:24:08;;;;;;;;;;;1.40;99.90;;;;;;4948939;28;19926;-71
2022/12/06 07:26:34;;;;;;;;;;;1.50;99.90;;;;;;4926715;28;19935;-71
2022/12/06 07:28:59;;;;;;;;;;;1.50;99.90;;;;;;4959358;28;19992;-71
2022/12/06 07:31:27;;;;;;;;;;;1.50;99.90;;;;;;4941435;28;19976;-71
2022/12/06 07:33:58;;;;;;;;;;;1.60;99.90;;;;;;4961438;28;19923;-71
2022/12/06 07:36:24;;;;;;;;;;;1.60;99.90;;;;;;4932944;28;20369;-71
2022/12/06 07:38:52;;;;;;;;;;;1.60;99.90;;;;;;4936886;28;20018;-71
2022/12/06 07:46:47;;;;;;;;;;;1.80;99.90;;;;;;4949534;28;20083;-72
2022/12/06 07:49:14;;;;;;;;;;;1.90;99.90;;;;;;4949144;28;20013;-72
2022/12/06 07:51:40;;;;;;;;;;;1.90;99.90;;;;;;4961545;28;19929;-72
2022/12/06 07:54:06;;;;;;;;;;;2.00;99.90;;;;;;4963347;28;19922;-72
2022/12/06 07:56:31;;;;;;;;;;;2.00;99.90;;;;;;4965824;28;20367;-72
2022/12/06 07:58:57;;;;;;;;;;;2.10;99.90;;;;;;4951401;28;20030;-72
2022/12/06 08:01:22;;;;;;;;;;;2.10;99.90;;;;;;4957251;28;19922;-72
2022/12/06 08:03:49;;;;;;;;;;;2.20;99.90;;;;;;4953602;28;19974;-72
2022/12/06 08:06:14;;;;;;;;;;;2.20;99.90;;;;;;4944922;29;19930;-72
2022/12/06 08:08:40;;;;;;;;;;;2.20;99.90;;;;;;4949341;28;19974;-72
2022/12/06 08:11:06;;;;;;;;;;;2.30;99.90;;;;;;4933813;28;19931;-72
2022/12/06 08:13:33;;;;;;;;;;;2.30;99.90;;;;;;4943349;28;19929;-72
2022/12/06 08:15:58;;;;;;;;;;;2.40;99.90;;;;;;4966502;28;19922;-72
2022/12/06 08:18:24;;;;;;;;;;;2.40;99.90;;;;;;4942388;28;20053;-72
2022/12/06 08:20:51;;;;;;;;;;;2.50;99.90;;;;;;4970777;28;19958;-74
2022/12/06 08:23:17;;;;;;;;;;;2.50;99.90;;;;;;4945047;28;19926;-72
2022/12/06 08:25:43;;;;;;;;;;;2.50;99.90;;;;;;4943730;28;19922;-72
2022/12/06 08:28:09;;;;;;;;;;;2.60;99.90;;;;;;4934426;28;19923;-71
2022/12/06 08:30:38;;;;;;;;;;;2.60;99.90;;;;;;4973096;28;20295;-72
2022/12/06 08:33:03;;;;;;;;;;;2.70;99.90;;;;;;4950395;28;19923;-72
2022/12/06 08:35:29;;;;;;;;;;;2.70;99.90;;;;;;4948634;28;19969;-72
2022/12/06 08:37:54;;;;;;;;;;;2.80;99.90;;;;;;4944268;28;19994;-72
2022/12/06 08:40:20;;;;;;;;;;;2.80;99.90;;;;;;4973168;28;20437;-72
2022/12/06 08:42:45;;;;;;;;;;;2.90;99.90;;;;;;4970907;28;19926;-75
2022/12/06 08:45:11;;;;;;;;;;;3.00;99.90;;;;;;4933711;29;20401;-73
2022/12/06 08:47:37;;;;;;;;;;;3.00;99.90;;;;;;4954106;28;19926;-74
2022/12/06 08:50:03;;;;;;;;;;;3.00;99.90;;;;;;4950151;28;20383;-74
2022/12/06 08:52:29;;;;;;;;;;;3.00;99.90;;;;;;4958328;28;19923;-74
2022/12/06 08:54:54;;;;;;;;;;;3.00;99.90;;;;;;4965544;28;20385;-74
2022/12/06 08:57:20;;;;;;;;;;;2.90;99.90;;;;;;4945660;28;19926;-74
2022/12/06 08:59:45;;;;;;;;;;;2.90;99.90;;;;;;4949461;28;19938;-75
2022/12/06 09:02:11;;;;;;;;;;;2.80;99.90;;;;;;4949273;28;19934;-74
2022/12/06 09:04:37;;;;;;;;;;;2.70;99.90;;;;;;4955934;28;19926;-74
2022/12/06 09:07:02;;;;;;;;;;;2.70;99.90;;;;;;4948708;28;20054;-75
2022/12/06 09:09:29;;;;;;;;;;;2.60;99.90;;;;;;4957807;28;19973;-74
2022/12/06 09:11:54;;;;;;;;;;;2.70;99.90;;;;;;4958187;28;20033;-74
2022/12/06 09:14:20;;;;;;;;;;;2.70;99.90;;;;;;4933551;29;19953;-74
2022/12/06 09:16:46;;;;;;;;;;;2.80;99.90;;;;;;4948982;28;20013;-74
2022/12/06 09:19:12;;;;;;;;;;;2.90;99.90;;;;;;4949602;28;19926;-74
2022/12/06 09:21:41;;;;;;;;;;;3.00;99.90;;;;;;4937680;28;19926;-74
2022/12/06 09:24:14;;;;;;;;;;;3.20;99.90;;;;;;4951572;28;19999;-74
2022/12/06 09:26:40;;;;;;;;;;;3.30;99.90;;;;;;4948394;28;20136;-74
2022/12/06 09:29:06;;;;;;;;;;;3.40;99.90;;;;;;4956829;28;19941;-74
2022/12/06 09:31:39;;;;;;;;;;;3.60;99.90;;;;;;4933987;29;19981;-73
2022/12/06 09:34:05;;;;;;;;;;;3.70;99.90;;;;;;4935344;28;19965;-74
2022/12/06 09:36:31;;;;;;;;;;;3.80;99.90;;;;;;4971840;28;19926;-73
2022/12/06 09:39:02;;;;;;;;;;;3.90;99.90;;;;;;4962624;28;20301;-73
2022/12/06 09:41:31;;;;;;;;;;;4.00;99.90;;;;;;4964407;28;20322;-73
2022/12/06 09:44:26;;;;;;;;;;;4.10;99.90;;;;;;4952984;28;19926;-73
2022/12/06 09:46:58;;;;;;;;;;;4.20;99.90;;;;;;4907503;28;19930;-73
2022/12/06 09:49:28;;;;;;;;;;;4.30;99.90;;;;;;4944407;28;19973;-73
2022/12/06 09:52:09;;;;;;;;;;;4.40;99.90;;;;;;4963992;28;19930;-73
2022/12/06 09:54:40;;;;;;;;;;;4.40;99.90;;;;;;4967785;28;19934;-73
2022/12/06 09:57:11;;;;;;;;;;;4.60;99.90;;;;;;4939970;28;20929;-73
2022/12/06 09:59:36;;;;;;;;;;;4.60;99.90;;;;;;4964009;28;19929;-73
2022/12/06 10:02:25;;;;;;;;;;;4.70;99.90;;;;;;4947921;28;20000;-73
2022/12/06 10:04:51;;;;;;;;;;;4.70;99.90;;;;;;4938235;28;19981;-73
2022/12/06 10:07:24;;;;;;;;;;;4.80;99.90;;;;;;4930041;28;19961;-73
2022/12/06 10:10:04;;;;;;;;;;;4.80;99.90;;;;;;4931458;28;19931;-73
2022/12/06 10:12:48;;;;;;;;;;;4.80;99.90;;;;;;4960660;28;19922;-73
2022/12/06 10:15:19;;;;;;;;;;;4.90;99.90;;;;;;4958403;28;19926;-73
2022/12/06 10:18:00;;;;;;;;;;;4.90;99.90;;;;;;4953545;28;20225;-73
2022/12/06 10:20:33;;;;;;;;;;;4.90;99.90;;;;;;4936578;28;20004;-73
2022/12/06 10:23:11;;;;;;;;;;;4.90;99.90;;;;;;4947843;28;19930;-73
2022/12/06 10:25:40;;;;;;;;;;;5.00;99.90;;;;;;4946734;28;19926;-73
2022/12/06 10:28:11;;;;;;;;;;;5.00;99.90;;;;;;4930838;28;19923;-73
2022/12/06 10:30:40;;;;;;;;;;;5.10;99.90;;;;;;4969389;28;20359;-73
2022/12/06 10:33:21;;;;;;;;;;;5.10;99.90;;;;;;4958985;28;19969;-73
2022/12/06 10:35:52;;;;;;;;;;;5.10;99.90;;;;;;4968315;28;19926;-73
2022/12/06 10:38:31;;;;;;;;;;;5.10;99.90;;;;;;4968754;28;20307;-73
2022/12/06 10:41:06;;;;;;;;;;;5.10;99.90;;;;;;4959450;28;19929;-73
2022/12/06 10:43:49;;;;;;;;;;;5.10;99.90;;;;;;4947084;28;20045;-72
2022/12/06 10:49:10;;;;;;;;;;;5.00;99.90;;;;;;4965213;28;20402;-72
2022/12/06 10:51:41;;;;;;;;;;;5.00;99.90;;;;;;4957348;28;19976;-72
2022/12/06 10:54:36;;;;;;;;;;;5.10;99.90;;;;;;4944337;28;19950;-73
2022/12/06 10:57:05;;;;;;;;;;;5.10;99.90;;;;;;4927364;28;20331;-73
2022/12/06 10:59:41;;;;;;;;;;;5.20;99.90;;;;;;4965769;28;20321;-73
2022/12/06 11:02:22;;;;;;;;;;;5.30;99.90;;;;;;4944878;28;20271;-73
2022/12/06 11:04:48;;;;;;;;;;;5.40;99.90;;;;;;4960553;28;19922;-73
2022/12/06 11:07:16;;;;;;;;;;;5.50;99.90;;;;;;4942298;28;19922;-72
2022/12/06 11:09:48;;;;;;;;;;;5.60;99.90;;;;;;4973339;28;19930;-74
2022/12/06 11:12:23;;;;;;;;;;;5.60;99.90;;;;;;4952106;28;19929;-74
2022/12/06 11:14:54;;;;;;;;;;;5.70;99.90;;;;;;4953332;28;19981;-74
2022/12/06 11:17:32;;;;;;;;;;;5.80;99.90;;;;;;4960228;28;19929;-73
2022/12/06 11:20:20;;;;;;;;;;;5.90;99.90;;;;;;4976249;28;19927;-74
2022/12/06 11:22:52;;;;;;;;;;;5.90;99.90;;;;;;4952313;28;19926;-73
2022/12/06 11:25:36;;;;;;;;;;;5.90;99.90;;;;;;4960660;28;19923;-74
2022/12/06 11:28:08;;;;;;;;;;;6.00;99.90;;;;;;4942919;28;19966;-74
2022/12/06 11:30:33;;;;;;;;;;;6.00;99.90;;;;;;4957550;28;20222;-73
2022/12/06 11:33:00;;;;;;;;;;;6.00;99.90;;;;;;4953308;28;19952;-73
2022/12/06 11:35:26;;;;;;;;;;;6.00;99.90;;;;;;4950861;28;19932;-73
2022/12/06 11:37:57;;;;;;;;;;;6.10;99.90;;;;;;4962761;28;20259;-74
2022/12/06 11:40:25;;;;;;;;;;;6.10;99.90;;;;;;4967246;28;19966;-73
2022/12/06 11:42:51;;;;;;;;;;;6.10;99.90;;;;;;4948011;28;19926;-74
2022/12/06 11:45:28;;;;;;;;;;;6.10;99.90;;;;;;4966836;28;19922;-74
2022/12/06 11:47:55;;;;;;;;;;;6.20;99.90;;;;;;4944700;28;19930;-73
2022/12/06 11:50:21;;;;;;;;;;;6.20;99.90;;;;;;4944783;28;20014;-73
2022/12/06 11:52:57;;;;;;;;;;;6.30;99.90;;;;;;4964523;28;20245;-73
2022/12/06 11:55:25;;;;;;;;;;;6.30;99.90;;;;;;4964531;28;20010;-74
2022/12/06 11:57:54;;;;;;;;;;;6.30;99.90;;;;;;4970573;28;19929;-74
2022/12/06 12:00:22;;;;;;;;;;;6.30;99.90;;;;;;4968494;28;19938;-74
2022/12/06 12:02:48;;;;;;;;;;;6.30;99.90;;;;;;4965914;28;19922;-74
2022/12/06 12:05:14;;;;;;;;;;;6.40;99.90;;;;;;4962168;28;20359;-74
2022/12/06 12:07:41;;;;;;;;;;;6.40;99.90;;;;;;4954457;28;20005;-72
2022/12/06 12:10:24;;;;;;;;;;;6.50;99.90;;;;;;4945856;28;20588;-75
2022/12/06 12:15:35;;;;;;;;;;;6.50;99.90;;;;;;4959743;28;19952;-74
2022/12/06 12:18:02;;;;;;;;;;;6.50;99.90;;;;;;4962429;28;19926;-74
2022/12/06 12:20:38;;;;;;;;;;;6.50;99.90;;;;;;4960723;28;19930;-74
2022/12/06 12:23:12;;;;;;;;;;;6.60;99.90;;;;;;4966525;28;19927;-75
2022/12/06 12:25:41;;;;;;;;;;;6.60;99.90;;;;;;4956276;28;20390;-73
2022/12/06 12:28:33;;;;;;;;;;;6.60;99.90;;;;;;4961297;28;19926;-75
2022/12/06 12:31:01;;;;;;;;;;;6.60;99.90;;;;;;4947469;28;20021;-74
2022/12/06 12:33:27;;;;;;;;;;;6.60;99.90;;;;;;4951374;28;19922;-74
2022/12/06 12:36:02;;;;;;;;;;;6.60;99.90;;;;;;4958191;28;19922;-74
2022/12/06 12:38:28;;;;;;;;;;;6.50;99.90;;;;;;4972627;28;20438;-74
2022/12/06 12:40:56;;;;;;;;;;;6.60;99.90;;;;;;4962536;28;20028;-74
2022/12/06 12:43:28;;;;;;;;;;;6.60;99.90;;;;;;4962608;28;19999;-74
2022/12/06 12:46:09;;;;;;;;;;;6.60;99.90;;;;;;4959007;28;19981;-74
2022/12/06 12:48:36;;;;;;;;;;;6.60;99.90;;;;;;4948541;28;20418;-73
2022/12/06 12:51:03;;;;;;;;;;;6.60;99.90;;;;;;4935106;28;19926;-74
2022/12/06 12:53:39;;;;;;;;;;;6.50;99.90;;;;;;4958499;28;19933;-73
2022/12/06 12:56:23;;;;;;;;;;;6.50;99.90;;;;;;4959778;28;20010;-74
2022/12/06 12:58:53;;;;;;;;;;;6.50;99.90;;;;;;4959286;28;20414;-73
2022/12/06 13:01:36;;;;;;;;;;;6.50;99.90;;;;;;4976426;28;20629;-74
2022/12/06 13:04:02;;;;;;;;;;;6.50;99.90;;;;;;4962441;28;19929;-74
2022/12/06 13:06:27;;;;;;;;;;;6.50;99.90;;;;;;4949627;28;19930;-74
2022/12/06 13:08:55;;;;;;;;;;;6.50;99.90;;;;;;4951537;28;19929;-74
2022/12/06 13:11:39;;;;;;;;;;;6.50;99.90;;;;;;4968636;28;19978;-74
2022/12/06 13:14:04;;;;;;;;;;;6.50;99.90;;;;;;4955978;28;19926;-73
2022/12/06 13:16:32;;;;;;;;;;;6.50;99.90;;;;;;4965321;28;19927;-73
2022/12/06 13:19:13;;;;;;;;;;;6.50;99.90;;;;;;4973153;28;19937;-74
2022/12/06 13:21:41;;;;;;;;;;;6.50;99.90;;;;;;4948721;28;19923;-74
2022/12/06 13:24:10;;;;;;;;;;;6.50;99.90;;;;;;4943883;28;19934;-73
2022/12/06 13:26:54;;;;;;;;;;;6.50;99.90;;;;;;4953952;28;19984;-73
2022/12/06 13:29:21;;;;;;;;;;;6.40;99.90;;;;;;4958295;28;20299;-74
2022/12/06 13:31:49;;;;;;;;;;;6.40;99.90;;;;;;4962195;28;19926;-73
2022/12/06 13:34:33;;;;;;;;;;;6.40;99.90;;;;;;4935193;28;19970;-74
2022/12/06 13:36:59;;;;;;;;;;;6.40;99.90;;;;;;4956364;28;19949;-75
2022/12/06 13:39:31;;;;;;;;;;;6.40;99.90;;;;;;4964110;28;20005;-73
2022/12/06 13:42:17;;;;;;;;;;;6.40;99.90;;;;;;4957267;28;20413;-73
2022/12/06 13:44:48;;;;;;;;;;;6.40;99.90;;;;;;4952644;28;19988;-74
2022/12/06 13:47:26;;;;;;;;;;;6.30;99.90;;;;;;4954272;28;20234;-74
2022/12/06 13:49:55;;;;;;;;;;;6.30;99.90;;;;;;4963397;28;19929;-74
2022/12/06 13:52:40;;;;;;;;;;;6.20;99.90;;;;;;4962759;28;19926;-74
2022/12/06 13:55:24;;;;;;;;;;;6.20;99.90;;;;;;4953649;28;19923;-72
2022/12/06 13:57:50;;;;;;;;;;;6.10;99.90;;;;;;4958681;28;19933;-71
2022/12/06 14:00:32;;;;;;;;;;;6.10;99.90;;;;;;4915152;28;19941;-71
2022/12/06 14:03:01;;;;;;;;;;;6.10;99.90;;;;;;4930953;28;20001;-71
2022/12/06 14:05:45;;;;;;;;;;;6.20;99.90;;;;;;4972626;28;19930;-71
2022/12/06 14:08:12;;;;;;;;;;;6.10;99.90;;;;;;4968406;28;19922;-72
2022/12/06 14:10:37;;;;;;;;;;;6.10;99.90;;;;;;4949064;28;19981;-71
2022/12/06 14:13:03;;;;;;;;;;;6.10;99.90;;;;;;4948504;28;20422;-71
2022/12/06 14:15:29;;;;;;;;;;;6.10;99.90;;;;;;4942397;28;20310;-71
2022/12/06 14:17:55;;;;;;;;;;;6.00;99.90;;;;;;4969342;28;20264;-71
2022/12/06 14:20:23;;;;;;;;;;;6.00;99.90;;;;;;4959621;28;20915;-71
2022/12/06 14:22:49;;;;;;;;;;;5.90;99.90;;;;;;4963793;28;20403;-71
2022/12/06 14:25:14;;;;;;;;;;;5.80;99.90;;;;;;4939593;28;19933;-71
2022/12/06 14:27:45;;;;;;;;;;;5.80;99.90;;;;;;4951563;28;19938;-71
2022/12/06 14:30:22;;;;;;;;;;;5.80;99.90;;;;;;4945474;28;19933;-71
2022/12/06 14:32:48;;;;;;;;;;;5.80;99.90;;;;;;4947675;28;19927;-71
2022/12/06 14:35:16;;;;;;;;;;;5.80;99.90;;;;;;4951916;28;19930;-71
2022/12/06 14:38:01;;;;;;;;;;;5.80;99.90;;;;;;4957714;28;19937;-71
2022/12/06 14:42:59;;;;;;;;;;;5.90;99.90;;;;;;4965285;28;19928;-71
2022/12/06 14:43:15;;;;;;;;;;;5.90;99.90;;;;;;4948654;28;19927;-71
2022/12/06 14:45:42;;;;;;;;;;;5.90;99.90;;;;;;4967559;28;19936;-71
2022/12/06 14:48:09;;;;;;;;;;;5.90;99.90;;;;;;4947302;28;19969;-71
2022/12/06 14:50:51;;;;;;;;;;;5.90;99.90;;;;;;4945092;28;20355;-72
2022/12/06 14:53:30;;;;;;;;;;;5.90;99.90;;;;;;4962705;28;19921;-72
2022/12/06 14:55:56;;;;;;;;;;;5.90;99.90;;;;;;4937676;28;20014;-72
2022/12/06 14:58:30;;;;;;;;;;;5.90;99.90;;;;;;4971134;28;20466;-72
2022/12/06 15:01:00;;;;;;;;;;;5.90;99.90;;;;;;4934005;28;19926;-72
2022/12/06 15:03:29;;;;;;;;;;;5.80;99.90;;;;;;4960577;28;19922;-72
2022/12/06 15:06:09;;;;;;;;;;;5.80;99.90;;;;;;4956593;28;19937;-72
2022/12/06 15:08:35;;;;;;;;;;;5.80;99.90;;;;;;4945161;28;19970;-72
2022/12/06 15:11:01;;;;;;;;;;;5.80;99.90;;;;;;4961380;28;19937;-72
2022/12/06 15:13:27;;;;;;;;;;;5.80;99.90;;;;;;4952564;28;19926;-72